createdAt,value
2017-05-17T00:00:45.594Z,19.3
2017-05-17T00:01:47.967Z,19.3
2017-05-17T00:02:50.297Z,19.3
2017-05-17T00:03:52.643Z,19.3
2017-05-17T00:04:54.992Z,19.3
2017-05-17T00:05:57.349Z,19.3
2017-05-17T00:06:59.722Z,19.4
2017-05-17T00:08:02.067Z,19.3
2017-05-17T00:09:04.360Z,19.3
2017-05-17T00:10:06.663Z,19.4
2017-05-17T00:11:09.038Z,19.3
2017-05-17T00:12:11.382Z,19.4
2017-05-17T00:13:13.722Z,19.4
2017-05-17T00:14:16.834Z,19.3
2017-05-17T00:15:19.206Z,19.3
2017-05-17T00:16:21.587Z,19.2
2017-05-17T00:17:23.912Z,19.2
2017-05-17T00:18:26.301Z,19.1
2017-05-17T00:19:28.700Z,19.1
2017-05-17T00:20:31.028Z,19.1
2017-05-17T00:21:33.344Z,19.1
2017-05-17T00:22:35.759Z,19.3
2017-05-17T00:23:38.213Z,19.3
2017-05-17T00:24:40.552Z,19
2017-05-17T00:25:42.883Z,18.9
2017-05-17T00:26:45.199Z,18.8
2017-05-17T00:27:47.645Z,18.9
2017-05-17T00:28:49.991Z,18.9
2017-05-17T00:29:52.307Z,18.8
2017-05-17T00:30:55.341Z,18.8
2017-05-17T00:31:57.686Z,18.8
2017-05-17T00:33:00.111Z,18.9
2017-05-17T00:34:02.511Z,18.8
2017-05-17T00:35:04.822Z,18.7
2017-05-17T00:36:07.179Z,18.8
2017-05-17T00:37:09.583Z,18.8
2017-05-17T00:38:11.943Z,18.8
2017-05-17T00:39:14.277Z,18.7
2017-05-17T00:40:16.577Z,18.9
2017-05-17T00:41:18.980Z,19
2017-05-17T00:43:33.324Z,18.9
2017-05-17T00:44:35.659Z,19
2017-05-17T00:45:38.009Z,18.9
2017-05-17T00:46:40.339Z,18.8
2017-05-17T00:47:42.656Z,18.8
2017-05-17T00:48:45.017Z,18.7
2017-05-17T00:49:47.352Z,18.6
2017-05-17T00:50:49.809Z,18.8
2017-05-17T00:51:52.191Z,18.9
2017-05-17T00:52:54.488Z,18.9
2017-05-17T00:53:56.908Z,19
2017-05-17T00:54:59.256Z,19.1
2017-05-17T00:56:01.590Z,18.8
2017-05-17T00:57:03.900Z,18.7
2017-05-17T00:58:06.206Z,18.7
2017-05-17T00:59:08.537Z,18.6
2017-05-17T01:00:10.882Z,18.5
2017-05-17T01:01:13.214Z,18.4
2017-05-17T01:02:15.560Z,18.4
2017-05-17T01:03:17.880Z,18.4
2017-05-17T01:04:20.208Z,18.5
2017-05-17T01:05:22.575Z,18.7
2017-05-17T01:06:24.903Z,18.9
2017-05-17T01:07:27.227Z,18.7
2017-05-17T01:08:29.610Z,18.7
2017-05-17T01:09:31.968Z,18.8
2017-05-17T01:10:34.296Z,18.8
2017-05-17T01:11:36.660Z,18.8
2017-05-17T01:12:38.965Z,18.7
2017-05-17T01:13:41.291Z,18.5
2017-05-17T01:14:43.638Z,18.6
2017-05-17T01:15:45.993Z,18.8
2017-05-17T01:16:48.468Z,18.7
2017-05-17T01:17:50.775Z,18.5
2017-05-17T01:18:53.103Z,18.3
2017-05-17T01:19:55.466Z,18.1
2017-05-17T01:20:57.812Z,18.1
2017-05-17T01:22:00.187Z,18.3
2017-05-17T01:23:02.536Z,18.5
2017-05-17T01:24:04.843Z,18.4
2017-05-17T01:25:07.185Z,18.4
2017-05-17T01:26:09.555Z,18.3
2017-05-17T01:27:11.943Z,18.2
2017-05-17T01:28:14.395Z,18.4
2017-05-17T01:29:16.691Z,18.4
2017-05-17T01:30:19.017Z,18.2
2017-05-17T01:31:21.335Z,17.9
2017-05-17T01:32:23.638Z,18
2017-05-17T01:33:25.993Z,18.2
2017-05-17T01:34:28.654Z,18.1
2017-05-17T01:35:30.965Z,18.2
2017-05-17T01:36:33.339Z,18
2017-05-17T01:37:35.877Z,18.1
2017-05-17T01:38:38.347Z,18.2
2017-05-17T01:39:40.764Z,18.1
2017-05-17T01:40:43.151Z,18.1
2017-05-17T01:41:45.807Z,18.1
2017-05-17T01:42:48.164Z,18.1
2017-05-17T01:43:50.528Z,18.1
2017-05-17T01:44:52.892Z,18.3
2017-05-17T01:45:55.260Z,18.2
2017-05-17T01:46:57.710Z,18
2017-05-17T01:48:00.112Z,18
2017-05-17T01:49:02.424Z,18.2
2017-05-17T01:50:04.766Z,18.2
2017-05-17T01:51:07.702Z,18.1
2017-05-17T01:52:10.310Z,18.1
2017-05-17T01:53:12.639Z,18.1
2017-05-17T01:54:14.946Z,18.1
2017-05-17T01:55:17.363Z,18.2
2017-05-17T01:56:19.727Z,18.3
2017-05-17T01:57:22.085Z,18.1
2017-05-17T01:58:24.405Z,18.1
2017-05-17T01:59:26.740Z,18.1
2017-05-17T02:00:29.233Z,18.1
2017-05-17T02:01:31.551Z,18
2017-05-17T02:02:33.871Z,17.9
2017-05-17T02:03:36.214Z,18
2017-05-17T02:04:38.666Z,18
2017-05-17T02:05:41.009Z,17.7
2017-05-17T02:06:43.351Z,17.7
2017-05-17T02:07:45.672Z,17.8
2017-05-17T02:08:48.023Z,17.6
2017-05-17T02:09:50.566Z,18
2017-05-17T02:10:53.005Z,18.1
2017-05-17T02:11:55.323Z,18.2
2017-05-17T02:12:57.667Z,18.3
2017-05-17T02:14:00.042Z,18.2
2017-05-17T02:15:02.423Z,18.2
2017-05-17T02:16:04.814Z,18.3
2017-05-17T02:17:07.178Z,18.4
2017-05-17T02:18:09.506Z,18.3
2017-05-17T02:19:11.825Z,18.1
2017-05-17T02:20:14.196Z,18.3
2017-05-17T02:21:16.529Z,18.3
2017-05-17T02:22:18.853Z,18.2
2017-05-17T02:23:21.571Z,18.1
2017-05-17T02:24:23.913Z,18
2017-05-17T02:25:26.248Z,17.9
2017-05-17T02:26:28.631Z,17.8
2017-05-17T02:27:30.929Z,17.8
2017-05-17T02:28:33.267Z,18
2017-05-17T02:29:35.592Z,18
2017-05-17T02:30:37.943Z,17.9
2017-05-17T02:31:40.291Z,18
2017-05-17T02:32:42.611Z,17.8
2017-05-17T02:33:44.967Z,17.7
2017-05-17T02:34:47.329Z,17.8
2017-05-17T02:35:49.760Z,17.7
2017-05-17T02:36:52.067Z,17.6
2017-05-17T02:37:54.368Z,17.7
2017-05-17T02:38:56.708Z,17.7
2017-05-17T02:39:59.163Z,17.6
2017-05-17T02:41:01.538Z,17.8
2017-05-17T02:42:03.854Z,17.8
2017-05-17T02:43:06.157Z,17.7
2017-05-17T02:44:08.567Z,17.6
2017-05-17T02:45:10.881Z,17.7
2017-05-17T02:46:13.212Z,17.8
2017-05-17T02:47:15.564Z,17.8
2017-05-17T02:48:17.897Z,17.8
2017-05-17T02:49:20.258Z,17.8
2017-05-17T02:50:22.567Z,17.8
2017-05-17T02:51:24.946Z,17.7
2017-05-17T02:52:27.291Z,17.6
2017-05-17T02:53:29.605Z,17.6
2017-05-17T02:54:32.501Z,17.7
2017-05-17T02:55:34.842Z,17.7
2017-05-17T02:56:37.216Z,17.7
2017-05-17T02:57:39.560Z,17.8
2017-05-17T02:58:41.889Z,17.9
2017-05-17T02:59:44.266Z,17.8
2017-05-17T03:00:46.596Z,17.8
2017-05-17T03:01:48.996Z,17.6
2017-05-17T03:02:51.627Z,17.6
2017-05-17T03:03:53.987Z,17.8
2017-05-17T03:04:56.350Z,17.8
2017-05-17T03:05:58.650Z,17.8
2017-05-17T03:07:01.014Z,17.8
2017-05-17T03:08:03.543Z,17.8
2017-05-17T03:09:05.884Z,17.8
2017-05-17T03:10:08.322Z,17.8
2017-05-17T03:11:10.703Z,17.9
2017-05-17T03:12:13.041Z,17.9
2017-05-17T03:13:15.361Z,17.8
2017-05-17T03:14:17.780Z,17.6
2017-05-17T03:15:20.702Z,17.5
2017-05-17T03:16:23.075Z,17.6
2017-05-17T03:17:25.375Z,17.6
2017-05-17T03:18:27.704Z,17.6
2017-05-17T03:19:30.093Z,17.7
2017-05-17T03:20:32.490Z,17.8
2017-05-17T03:21:34.874Z,17.9
2017-05-17T03:22:37.241Z,17.6
2017-05-17T03:23:39.614Z,17.6
2017-05-17T03:24:41.935Z,17.4
2017-05-17T03:25:44.308Z,17.2
2017-05-17T03:26:46.637Z,17.2
2017-05-17T03:27:49.041Z,17.4
2017-05-17T03:28:51.387Z,17.1
2017-05-17T03:29:53.705Z,17.2
2017-05-17T03:30:56.151Z,17.2
2017-05-17T03:31:58.473Z,17.2
2017-05-17T03:33:00.874Z,17.5
2017-05-17T03:34:03.351Z,17.6
2017-05-17T03:35:05.866Z,17.5
2017-05-17T03:36:08.255Z,17.6
2017-05-17T03:37:10.625Z,17.5
2017-05-17T03:38:12.950Z,17.4
2017-05-17T03:39:15.281Z,17.5
2017-05-17T03:40:17.630Z,17.6
2017-05-17T03:41:20.036Z,17.5
2017-05-17T03:42:22.393Z,17.6
2017-05-17T03:43:24.720Z,17.6
2017-05-17T03:44:27.110Z,17.7
2017-05-17T03:45:29.487Z,17.6
2017-05-17T03:46:31.851Z,17.5
2017-05-17T03:47:34.170Z,17.7
2017-05-17T03:48:36.496Z,17.8
2017-05-17T03:49:39.485Z,17.7
2017-05-17T03:50:41.850Z,17.7
2017-05-17T03:51:44.238Z,17.8
2017-05-17T03:52:46.581Z,17.8
2017-05-17T03:53:48.978Z,17.8
2017-05-17T03:54:51.346Z,17.7
2017-05-17T03:55:53.717Z,17.7
2017-05-17T03:56:56.047Z,17.7
2017-05-17T03:57:58.410Z,17.5
2017-05-17T03:59:00.769Z,17.4
2017-05-17T04:00:03.134Z,17.4
2017-05-17T04:01:05.495Z,17.3
2017-05-17T04:02:07.822Z,17.2
2017-05-17T04:03:10.183Z,17
2017-05-17T04:04:12.514Z,17
2017-05-17T04:05:14.887Z,17.1
2017-05-17T04:06:17.476Z,17.3
2017-05-17T04:07:20.029Z,17.3
2017-05-17T04:08:22.967Z,17.4
2017-05-17T04:09:25.364Z,17.4
2017-05-17T04:10:27.907Z,17.4
2017-05-17T04:11:30.257Z,17.5
2017-05-17T04:12:32.626Z,17.6
2017-05-17T04:13:34.960Z,17.4
2017-05-17T04:14:37.705Z,17.4
2017-05-17T04:15:40.181Z,17.3
2017-05-17T04:16:42.529Z,17.2
2017-05-17T04:17:44.872Z,17.1
2017-05-17T04:18:47.227Z,17.1
2017-05-17T04:19:49.632Z,17.2
2017-05-17T04:20:51.966Z,17.1
2017-05-17T04:21:54.327Z,17.2
2017-05-17T04:22:56.696Z,17.3
2017-05-17T04:23:59.069Z,17.3
2017-05-17T04:25:01.450Z,17.3
2017-05-17T04:26:12.760Z,17.2
2017-05-17T04:27:15.093Z,17.2
2017-05-17T04:28:17.486Z,17.3
2017-05-17T04:29:19.832Z,17.1
2017-05-17T04:30:22.159Z,17.2
2017-05-17T04:31:33.449Z,17.2
2017-05-17T04:32:35.808Z,17.2
2017-05-17T04:33:38.189Z,17.2
2017-05-17T04:34:40.593Z,17.1
2017-05-17T04:35:42.941Z,17
2017-05-17T04:36:45.478Z,17.1
2017-05-17T04:37:47.851Z,17.1
2017-05-17T04:38:50.344Z,17.1
2017-05-17T04:39:52.683Z,17.2
2017-05-17T04:40:54.977Z,17.2
2017-05-17T04:41:57.302Z,17.2
2017-05-17T04:42:59.717Z,17.4
2017-05-17T04:44:02.067Z,17.4
2017-05-17T04:45:04.443Z,17.4
2017-05-17T04:46:06.855Z,17.3
2017-05-17T04:47:09.336Z,17.4
2017-05-17T04:48:11.715Z,17.4
2017-05-17T04:49:14.102Z,17.4
2017-05-17T04:50:16.455Z,17.4
2017-05-17T04:51:18.833Z,17.4
2017-05-17T04:52:21.199Z,17.4
2017-05-17T04:53:23.566Z,17.6
2017-05-17T04:54:25.951Z,17.6
2017-05-17T04:55:28.296Z,17.7
2017-05-17T04:56:30.711Z,17.7
2017-05-17T04:57:33.079Z,17.7
2017-05-17T04:58:35.431Z,17.7
2017-05-17T04:59:38.056Z,17.7
2017-05-17T05:00:40.601Z,17.6
2017-05-17T05:01:42.937Z,17.6
2017-05-17T05:02:45.320Z,17.6
2017-05-17T05:03:48.389Z,17.7
2017-05-17T05:04:51.058Z,17.7
2017-05-17T05:05:53.436Z,17.6
2017-05-17T05:06:55.813Z,17.8
2017-05-17T05:07:58.175Z,17.9
2017-05-17T05:09:00.648Z,17.9
2017-05-17T05:10:03.043Z,17.9
2017-05-17T05:11:05.414Z,17.9
2017-05-17T05:12:07.828Z,18
2017-05-17T05:13:10.171Z,18.1
2017-05-17T05:14:12.489Z,18
2017-05-17T05:15:14.863Z,18
2017-05-17T05:16:17.251Z,18
2017-05-17T05:17:19.748Z,18
2017-05-17T05:18:22.319Z,18.1
2017-05-17T05:19:24.655Z,18.2
2017-05-17T05:20:27.008Z,18.2
2017-05-17T05:21:29.465Z,18.2
2017-05-17T05:22:31.842Z,18.2
2017-05-17T05:23:34.209Z,18.2
2017-05-17T05:24:36.582Z,18.3
2017-05-17T05:25:39.448Z,18.3
2017-05-17T05:26:42.058Z,18.3
2017-05-17T05:27:45.475Z,18.3
2017-05-17T05:28:48.473Z,18.4
2017-05-17T05:29:52.074Z,18.3
2017-05-17T05:30:54.449Z,18
2017-05-17T05:31:56.780Z,18.2
2017-05-17T05:32:59.115Z,18.4
2017-05-17T05:34:01.523Z,18.4
2017-05-17T05:35:03.884Z,18.5
2017-05-17T05:36:06.341Z,18.4
2017-05-17T05:37:08.708Z,18.2
2017-05-17T05:38:11.141Z,18.5
2017-05-17T05:39:13.533Z,18.6
2017-05-17T05:40:15.933Z,18.5
2017-05-17T05:41:18.329Z,18.3
2017-05-17T05:42:20.788Z,18.6
2017-05-17T05:43:23.140Z,18.8
2017-05-17T05:44:25.527Z,18.8
2017-05-17T05:45:27.861Z,18.8
2017-05-17T05:46:30.241Z,18.6
2017-05-17T05:47:32.619Z,18.9
2017-05-17T05:48:34.995Z,19.1
2017-05-17T05:49:37.354Z,19.3
2017-05-17T05:50:39.810Z,19.4
2017-05-17T05:51:42.195Z,19.5
2017-05-17T05:52:44.528Z,19.6
2017-05-17T05:53:46.887Z,19.7
2017-05-17T05:54:49.262Z,19.8
2017-05-17T05:55:51.684Z,19.8
2017-05-17T05:56:54.028Z,19.7
2017-05-17T05:57:56.371Z,19.9
2017-05-17T05:58:58.741Z,19.9
2017-05-17T06:00:01.239Z,19.9
2017-05-17T06:01:03.648Z,20.1
2017-05-17T06:02:06.064Z,20
2017-05-17T06:03:08.463Z,20.1
2017-05-17T06:04:10.916Z,20.3
2017-05-17T06:05:13.264Z,20.2
2017-05-17T06:06:15.855Z,20.3
2017-05-17T06:07:18.217Z,20.3
2017-05-17T06:08:21.294Z,20.3
2017-05-17T06:09:23.766Z,20.3
2017-05-17T06:10:26.157Z,20.4
2017-05-17T06:11:28.550Z,20.4
2017-05-17T06:12:31.013Z,20.5
2017-05-17T06:13:33.423Z,20.4
2017-05-17T06:14:35.779Z,20.3
2017-05-17T06:15:38.180Z,20
2017-05-17T06:16:40.767Z,20
2017-05-17T06:17:43.281Z,20.4
2017-05-17T06:18:45.666Z,20.3
2017-05-17T06:19:48.231Z,20.3
2017-05-17T06:20:50.760Z,20.2
2017-05-17T06:21:54.016Z,20.3
2017-05-17T06:22:56.396Z,20.4
2017-05-17T06:23:58.802Z,20.4
2017-05-17T06:25:01.715Z,20.4
2017-05-17T06:26:04.279Z,20.6
2017-05-17T06:27:07.320Z,20.4
2017-05-17T06:28:11.961Z,20.2
2017-05-17T06:29:14.417Z,20.2
2017-05-17T06:30:16.844Z,20
2017-05-17T06:31:19.298Z,20
2017-05-17T06:32:21.739Z,20
2017-05-17T06:33:24.537Z,20
2017-05-17T06:34:26.960Z,20
2017-05-17T06:35:29.981Z,19.9
2017-05-17T06:36:33.366Z,20
2017-05-17T06:37:35.803Z,20
2017-05-17T06:38:38.238Z,20.1
2017-05-17T06:39:40.868Z,20.1
2017-05-17T06:40:43.220Z,20.2
2017-05-17T06:41:45.646Z,20.3
2017-05-17T06:42:48.017Z,20.3
2017-05-17T06:43:50.451Z,20.3
2017-05-17T06:44:52.834Z,20.2
2017-05-17T06:45:55.263Z,20.1
2017-05-17T06:46:57.669Z,20.2
2017-05-17T06:48:00.194Z,20.2
2017-05-17T06:49:02.631Z,20.3
2017-05-17T06:50:05.060Z,20.4
2017-05-17T06:51:07.663Z,20.4
2017-05-17T06:52:10.234Z,20.4
2017-05-17T06:53:13.074Z,20.5
2017-05-17T06:54:15.534Z,20.5
2017-05-17T06:55:17.920Z,20.6
2017-05-17T06:56:21.136Z,20.4
2017-05-17T06:57:23.500Z,20.7
2017-05-17T06:58:25.888Z,20.8
2017-05-17T06:59:28.303Z,21
2017-05-17T07:00:30.826Z,21.1
2017-05-17T07:01:33.290Z,21.1
2017-05-17T07:02:35.689Z,21.1
2017-05-17T07:03:38.396Z,21.1
2017-05-17T07:04:41.720Z,21.1
2017-05-17T07:05:44.170Z,21
2017-05-17T07:06:46.695Z,21.1
2017-05-17T07:07:49.260Z,21.2
2017-05-17T07:08:51.692Z,21.1
2017-05-17T07:09:54.113Z,21.3
2017-05-17T07:10:56.502Z,21.5
2017-05-17T07:11:58.898Z,21.7
2017-05-17T07:13:01.421Z,21.7
2017-05-17T07:14:03.793Z,21.9
2017-05-17T07:15:06.293Z,21.8
2017-05-17T07:16:08.722Z,22
2017-05-17T07:17:11.186Z,22.2
2017-05-17T07:18:13.651Z,22.2
2017-05-17T07:19:16.083Z,22.3
2017-05-17T07:20:18.505Z,22.2
2017-05-17T07:21:20.940Z,22.3
2017-05-17T07:22:23.391Z,22.8
2017-05-17T07:23:25.855Z,22.8
2017-05-17T07:24:28.275Z,22.9
2017-05-17T07:25:30.684Z,23
2017-05-17T07:26:33.079Z,22.9
2017-05-17T07:27:35.553Z,22.9
2017-05-17T07:28:37.975Z,22.8
2017-05-17T07:29:40.418Z,22.8
2017-05-17T07:30:42.808Z,23.1
2017-05-17T07:31:45.263Z,23
2017-05-17T07:32:47.787Z,23.2
2017-05-17T07:33:50.330Z,23.3
2017-05-17T07:34:52.701Z,23.4
2017-05-17T07:35:55.437Z,23.7
2017-05-17T07:36:57.819Z,24
2017-05-17T07:38:00.338Z,24.3
2017-05-17T07:39:02.801Z,24.9
2017-05-17T07:40:05.258Z,24.9
2017-05-17T07:41:08.038Z,25.3
2017-05-17T07:42:10.454Z,25.2
2017-05-17T07:43:12.895Z,24.7
2017-05-17T07:44:15.401Z,24.4
2017-05-17T07:45:17.893Z,24.3
2017-05-17T07:46:20.420Z,24.3
2017-05-17T07:47:22.910Z,24.2
2017-05-17T07:48:25.428Z,24.3
2017-05-17T07:49:27.841Z,24.6
2017-05-17T07:50:30.945Z,24.5
2017-05-17T07:51:33.376Z,24.7
2017-05-17T07:52:35.754Z,24.4
2017-05-17T07:53:38.231Z,24.5
2017-05-17T07:54:40.714Z,24.4
2017-05-17T07:55:43.141Z,24.5
2017-05-17T07:56:45.616Z,24.5
2017-05-17T07:57:48.030Z,24.8
2017-05-17T07:58:50.529Z,24.7
2017-05-17T07:59:53.021Z,24.6
2017-05-17T08:00:56.277Z,24.9
2017-05-17T08:02:03.565Z,25.2
2017-05-17T08:03:06.033Z,25.3
2017-05-17T08:04:08.520Z,25.8
2017-05-17T08:05:11.013Z,25.7
2017-05-17T08:06:13.476Z,25.7
2017-05-17T08:07:16.049Z,25.9
2017-05-17T08:08:18.474Z,26
2017-05-17T08:09:20.896Z,25.8
2017-05-17T08:10:23.275Z,25.5
2017-05-17T08:11:25.682Z,25.8
2017-05-17T08:12:28.121Z,25.7
2017-05-17T08:13:31.088Z,25.8
2017-05-17T08:14:33.533Z,26.3
2017-05-17T08:15:35.942Z,26
2017-05-17T08:16:38.376Z,25.8
2017-05-17T08:17:41.213Z,25.8
2017-05-17T08:18:43.611Z,25.7
2017-05-17T08:19:46.142Z,25.9
2017-05-17T08:20:48.609Z,26
2017-05-17T08:21:52.089Z,25.7
2017-05-17T08:22:54.520Z,25.7
2017-05-17T08:23:56.912Z,25.8
2017-05-17T08:24:59.334Z,25.6
2017-05-17T08:26:01.849Z,25.1
2017-05-17T08:27:04.280Z,25.3
2017-05-17T08:28:06.758Z,25.7
2017-05-17T08:29:09.241Z,26.1
2017-05-17T08:30:11.735Z,26.2
2017-05-17T08:31:14.192Z,26.2
2017-05-17T08:32:17.304Z,26
2017-05-17T08:33:19.766Z,25.5
2017-05-17T08:34:22.256Z,25.6
2017-05-17T08:35:24.688Z,25.5
2017-05-17T08:36:27.176Z,25.5
2017-05-17T08:37:29.627Z,25.4
2017-05-17T08:38:32.616Z,25.2
2017-05-17T08:39:35.041Z,25.3
2017-05-17T08:40:37.498Z,25.5
2017-05-17T08:41:40.414Z,25.1
2017-05-17T08:42:42.903Z,25
2017-05-17T08:43:45.300Z,25
2017-05-17T08:44:47.738Z,25.1
2017-05-17T08:45:50.393Z,25.2
2017-05-17T08:46:52.821Z,25.3
2017-05-17T08:47:55.208Z,25.5
2017-05-17T08:48:57.686Z,25.6
2017-05-17T08:50:00.247Z,25.4
2017-05-17T08:51:02.730Z,25.5
2017-05-17T08:52:05.195Z,25.8
2017-05-17T08:53:07.600Z,26
2017-05-17T08:54:10.131Z,25.8
2017-05-17T08:55:12.597Z,25.9
2017-05-17T08:56:14.961Z,25.7
2017-05-17T08:57:18.588Z,25.7
2017-05-17T08:58:21.063Z,25.8
2017-05-17T08:59:23.535Z,25.8
2017-05-17T09:00:25.973Z,25.9
2017-05-17T09:01:28.437Z,25.8
2017-05-17T09:02:30.933Z,25.5
2017-05-17T09:03:33.375Z,25.6
2017-05-17T09:04:35.804Z,26
2017-05-17T09:05:38.297Z,26.4
2017-05-17T09:06:40.844Z,26.2
2017-05-17T09:07:43.210Z,26.8
2017-05-17T09:08:45.653Z,26.6
2017-05-17T09:09:48.354Z,26.9
2017-05-17T09:10:50.898Z,27.4
2017-05-17T09:11:53.381Z,27.5
2017-05-17T09:12:55.851Z,26.8
2017-05-17T09:13:58.357Z,27.3
2017-05-17T09:15:00.864Z,27.7
2017-05-17T09:16:03.320Z,28
2017-05-17T09:17:05.769Z,28.7
2017-05-17T09:18:08.224Z,29
2017-05-17T09:19:11.455Z,28.4
2017-05-17T09:20:13.982Z,28.4
2017-05-17T09:21:17.015Z,28.1
2017-05-17T09:22:19.504Z,28.6
2017-05-17T09:23:22.013Z,27.7
2017-05-17T09:24:24.544Z,28.2
2017-05-17T09:25:27.045Z,28.9
2017-05-17T09:26:29.847Z,28.7
2017-05-17T09:27:32.329Z,27.5
2017-05-17T09:28:34.890Z,27.8
2017-05-17T09:29:37.501Z,29
2017-05-17T09:30:40.784Z,28.8
2017-05-17T09:31:43.335Z,28
2017-05-17T09:32:45.983Z,27.5
2017-05-17T09:33:48.740Z,27.6
2017-05-17T09:34:51.517Z,27.5
2017-05-17T09:35:54.168Z,27.4
2017-05-17T09:36:56.678Z,27.6
2017-05-17T09:37:59.340Z,27
2017-05-17T09:39:02.156Z,27.9
2017-05-17T09:40:04.665Z,27.7
2017-05-17T09:41:07.243Z,27.6
2017-05-17T09:42:09.832Z,26.6
2017-05-17T09:43:12.333Z,27.1
2017-05-17T09:44:15.056Z,27.5
2017-05-17T09:45:17.549Z,26.9
2017-05-17T09:46:20.034Z,26.6
2017-05-17T09:47:22.548Z,26.9
2017-05-17T09:48:25.001Z,27.1
2017-05-17T09:49:27.571Z,28.1
2017-05-17T09:50:30.044Z,28.7
2017-05-17T09:51:32.632Z,27.9
2017-05-17T09:52:35.083Z,27.5
2017-05-17T09:53:38.275Z,27.5
2017-05-17T09:54:40.888Z,27.1
2017-05-17T09:55:43.520Z,26.9
2017-05-17T09:56:46.199Z,27
2017-05-17T09:57:48.707Z,27
2017-05-17T09:58:51.270Z,27.3
2017-05-17T09:59:53.775Z,26.6
2017-05-17T10:00:56.258Z,27
2017-05-17T10:01:58.709Z,27.3
2017-05-17T10:03:01.279Z,26.7
2017-05-17T10:04:03.798Z,27
2017-05-17T10:05:06.330Z,26.9
2017-05-17T10:06:08.764Z,27
2017-05-17T10:07:11.969Z,26.7
2017-05-17T10:08:14.461Z,26.9
2017-05-17T10:09:16.967Z,27.4
2017-05-17T10:10:20.115Z,28
2017-05-17T10:11:22.608Z,27.9
2017-05-17T10:12:25.462Z,27.8
2017-05-17T10:13:27.992Z,28.1
2017-05-17T10:14:30.536Z,27.5
2017-05-17T10:15:33.657Z,27.2
2017-05-17T10:16:36.076Z,26.7
2017-05-17T10:17:38.601Z,27
2017-05-17T10:18:41.171Z,27.6
2017-05-17T10:19:43.680Z,27.6
2017-05-17T10:20:46.203Z,27.3
2017-05-17T10:21:48.718Z,27.5
2017-05-17T10:22:51.301Z,27.6
2017-05-17T10:23:53.803Z,27.6
2017-05-17T10:24:56.251Z,28
2017-05-17T10:25:59.264Z,28.1
2017-05-17T10:27:02.387Z,27.2
2017-05-17T10:28:04.911Z,27.1
2017-05-17T10:29:07.351Z,27.3
2017-05-17T10:30:09.800Z,27.1
2017-05-17T10:31:12.296Z,26.9
2017-05-17T10:32:14.740Z,26.5
2017-05-17T10:33:17.522Z,26.9
2017-05-17T10:34:20.039Z,27
2017-05-17T10:35:22.572Z,27.1
2017-05-17T10:36:27.032Z,27.4
2017-05-17T10:37:30.106Z,27.5
2017-05-17T10:38:32.573Z,27
2017-05-17T10:39:35.150Z,26.8
2017-05-17T10:40:37.581Z,27.1
2017-05-17T10:41:40.069Z,27.3
2017-05-17T10:42:42.483Z,26.8
2017-05-17T10:43:46.059Z,27.3
2017-05-17T10:44:48.710Z,27.7
2017-05-17T10:45:51.486Z,27.8
2017-05-17T10:46:53.911Z,27.5
2017-05-17T10:47:57.398Z,27.5
2017-05-17T10:49:00.872Z,27.2
2017-05-17T10:50:04.189Z,27.3
2017-05-17T10:51:07.732Z,27.5
2017-05-17T10:52:11.086Z,27.2
2017-05-17T10:53:14.432Z,27.2
2017-05-17T10:54:18.305Z,27
2017-05-17T10:55:21.284Z,26.9
2017-05-17T10:56:24.329Z,26.4
2017-05-17T10:57:28.269Z,26.4
2017-05-17T10:58:31.088Z,26.5
2017-05-17T10:59:34.351Z,26.9
2017-05-17T11:00:37.923Z,27.1
2017-05-17T11:01:41.126Z,26.8
2017-05-17T11:02:44.437Z,26.6
2017-05-17T11:03:47.969Z,26.2
2017-05-17T11:04:51.172Z,25.8
2017-05-17T11:05:53.684Z,26
2017-05-17T11:06:56.333Z,26.1
2017-05-17T11:07:59.107Z,26
2017-05-17T11:09:01.951Z,25.7
2017-05-17T11:10:04.758Z,25.7
2017-05-17T11:11:08.258Z,25.9
2017-05-17T11:12:11.938Z,26.2
2017-05-17T11:13:15.035Z,26
2017-05-17T11:14:17.628Z,25.8
2017-05-17T11:15:20.875Z,25.9
2017-05-17T11:16:23.528Z,26
2017-05-17T11:17:26.469Z,26.5
2017-05-17T11:18:29.136Z,26.7
2017-05-17T11:19:32.476Z,26.4
2017-05-17T11:20:35.305Z,26.3
2017-05-17T11:21:37.934Z,26.7
2017-05-17T11:22:40.667Z,26.3
2017-05-17T11:23:43.234Z,26.4
2017-05-17T11:24:45.911Z,26.3
2017-05-17T11:25:48.711Z,26.9
2017-05-17T11:26:51.521Z,26.6
2017-05-17T11:27:54.620Z,26.7
2017-05-17T11:28:57.220Z,26.7
2017-05-17T11:29:59.784Z,26.8
2017-05-17T11:31:02.470Z,26.8
2017-05-17T11:32:05.068Z,26.5
2017-05-17T11:33:07.776Z,26.7
2017-05-17T11:34:11.087Z,27.3
2017-05-17T11:35:13.579Z,27.7
2017-05-17T11:36:16.170Z,27.5
2017-05-17T11:37:18.781Z,27.5
2017-05-17T11:38:21.300Z,27.8
2017-05-17T11:39:23.821Z,27.2
2017-05-17T11:40:27.179Z,27.1
2017-05-17T11:41:29.870Z,27.2
2017-05-17T11:42:32.513Z,27
2017-05-17T11:43:35.025Z,26.9
2017-05-17T11:44:38.148Z,27.1
2017-05-17T11:45:41.309Z,27.1
2017-05-17T11:46:44.439Z,27.5
2017-05-17T11:47:47.909Z,27.8
2017-05-17T11:48:50.456Z,27.8
2017-05-17T11:49:53.026Z,27.6
2017-05-17T11:50:55.515Z,28.2
2017-05-17T11:51:58.110Z,28.5
2017-05-17T11:53:00.599Z,28.5
2017-05-17T11:54:03.195Z,28.4
2017-05-17T11:55:05.699Z,28
2017-05-17T11:56:08.276Z,27.6
2017-05-17T11:57:10.890Z,27.7
2017-05-17T11:58:14.017Z,27.1
2017-05-17T11:59:16.445Z,26.8
2017-05-17T12:00:19.535Z,27
2017-05-17T12:01:22.544Z,27.3
2017-05-17T12:02:25.074Z,27.1
2017-05-17T12:03:27.554Z,27
2017-05-17T12:04:29.968Z,27.1
2017-05-17T12:05:33.447Z,27
2017-05-17T12:06:35.904Z,27.4
2017-05-17T12:07:38.845Z,27.2
2017-05-17T12:08:41.796Z,27
2017-05-17T12:09:45.441Z,26.9
2017-05-17T12:10:48.294Z,27.1
2017-05-17T12:11:50.879Z,27.2
2017-05-17T12:12:53.412Z,27.5
2017-05-17T12:13:57.683Z,27.4
2017-05-17T12:15:00.147Z,27.2
2017-05-17T12:16:03.276Z,27.1
2017-05-17T12:17:05.826Z,26.9
2017-05-17T12:18:09.009Z,27
2017-05-17T12:19:12.152Z,27.3
2017-05-17T12:20:15.223Z,27.3
2017-05-17T12:21:17.828Z,27.1
2017-05-17T12:22:20.317Z,27.2
2017-05-17T12:23:22.790Z,27.2
2017-05-17T12:24:25.228Z,26.8
2017-05-17T12:25:27.821Z,27.1
2017-05-17T12:26:30.958Z,27.2
2017-05-17T12:27:33.355Z,27
2017-05-17T12:28:36.695Z,26.6
2017-05-17T12:29:40.233Z,26.6
2017-05-17T12:30:43.527Z,26.8
2017-05-17T12:31:45.948Z,26.8
2017-05-17T12:32:49.608Z,27
2017-05-17T12:33:53.219Z,27.3
2017-05-17T12:34:56.356Z,27.1
2017-05-17T12:36:00.364Z,26.7
2017-05-17T12:37:04.092Z,26.2
2017-05-17T12:38:06.590Z,26.3
2017-05-17T12:39:09.139Z,26.3
2017-05-17T12:40:11.805Z,26.5
2017-05-17T12:41:14.292Z,26.6
2017-05-17T12:42:19.967Z,27.1
2017-05-17T12:43:25.563Z,26.6
2017-05-17T12:44:28.105Z,26.8
2017-05-17T12:45:31.332Z,26.7
2017-05-17T12:46:33.783Z,26.4
2017-05-17T12:47:36.254Z,26.2
2017-05-17T12:48:38.728Z,26.9
2017-05-17T12:49:41.361Z,26.9
2017-05-17T12:50:43.875Z,26.6
2017-05-17T12:51:46.479Z,26.8
2017-05-17T12:52:48.997Z,26.5
2017-05-17T12:53:51.648Z,26.3
2017-05-17T12:54:54.083Z,26.7
2017-05-17T12:56:01.823Z,26.9
2017-05-17T12:57:04.268Z,26.9
2017-05-17T12:58:06.771Z,27.1
2017-05-17T12:59:09.233Z,27.3
2017-05-17T13:00:11.743Z,27
2017-05-17T13:01:14.183Z,26.8
2017-05-17T13:02:16.617Z,26.8
2017-05-17T13:03:20.085Z,26.7
2017-05-17T13:04:24.030Z,27.1
2017-05-17T13:05:26.514Z,26.9
2017-05-17T13:06:29.063Z,26.9
2017-05-17T13:07:32.892Z,27
2017-05-17T13:08:35.364Z,27.2
2017-05-17T13:09:38.804Z,27.4
2017-05-17T13:10:42.176Z,27.3
2017-05-17T13:11:45.713Z,26.7
2017-05-17T13:12:48.315Z,27.1
2017-05-17T13:13:50.767Z,27.2
2017-05-17T13:14:53.889Z,27.1
2017-05-17T13:15:56.366Z,27.1
2017-05-17T13:17:00.320Z,26.8
2017-05-17T13:18:02.879Z,26.7
2017-05-17T13:19:05.390Z,27.1
2017-05-17T13:20:07.923Z,26.9
2017-05-17T13:21:10.549Z,26.8
2017-05-17T13:22:14.010Z,27
2017-05-17T13:23:16.491Z,26.9
2017-05-17T13:24:18.959Z,27.1
2017-05-17T13:25:22.161Z,27.1
2017-05-17T13:26:24.666Z,27
2017-05-17T13:27:27.079Z,26.8
2017-05-17T13:28:30.074Z,26.6
2017-05-17T13:29:34.746Z,26.9
2017-05-17T13:30:39.815Z,27.2
2017-05-17T13:31:42.440Z,27.1
2017-05-17T13:32:44.915Z,27.1
2017-05-17T13:33:48.369Z,27
2017-05-17T13:34:50.905Z,26.9
2017-05-17T13:35:53.475Z,26.9
2017-05-17T13:36:56.011Z,26.9
2017-05-17T13:37:58.525Z,26.7
2017-05-17T13:39:01.675Z,26.8
2017-05-17T13:40:04.809Z,26.7
2017-05-17T13:41:07.287Z,26.8
2017-05-17T13:42:09.786Z,27.1
2017-05-17T13:43:12.909Z,27.3
2017-05-17T13:44:16.482Z,27.1
2017-05-17T13:45:19.036Z,27.1
2017-05-17T13:46:22.910Z,26.6
2017-05-17T13:47:26.352Z,26.9
2017-05-17T13:48:30.047Z,26.8
2017-05-17T13:49:32.665Z,27.1
2017-05-17T13:50:35.165Z,27.1
2017-05-17T13:51:37.670Z,26.9
2017-05-17T13:52:40.396Z,27
2017-05-17T13:53:46.033Z,26.7
2017-05-17T13:54:48.774Z,26.5
2017-05-17T13:55:51.887Z,26.6
2017-05-17T13:56:54.339Z,26.5
2017-05-17T13:57:57.004Z,26.5
2017-05-17T13:59:01.604Z,26.6
2017-05-17T14:00:06.020Z,27
2017-05-17T14:01:09.765Z,26.9